createdAt,value
2023-05-08T00:01:21.510Z,5.48
2023-05-08T00:03:50.303Z,5.41
2023-05-08T00:06:19.267Z,5.35
2023-05-08T00:08:48.034Z,5.37
2023-05-08T00:11:17.077Z,5.37
2023-05-08T00:13:47.182Z,5.32
2023-05-08T00:16:16.065Z,5.29
2023-05-08T00:18:44.757Z,5.21
2023-05-08T00:21:13.460Z,5.12
2023-05-08T00:23:42.130Z,5.09
2023-05-08T00:26:10.910Z,5.13
2023-05-08T00:28:39.585Z,5.18
2023-05-08T00:31:09.708Z,5.19
2023-05-08T00:33:38.424Z,5.09
2023-05-08T00:36:08.533Z,5.01
2023-05-08T00:38:38.049Z,5.06
2023-05-08T00:41:06.859Z,4.98
2023-05-08T00:43:37.529Z,4.90
2023-05-08T00:46:06.828Z,4.84
2023-05-08T00:48:37.441Z,4.73
2023-05-08T00:51:07.969Z,4.63
2023-05-08T00:53:43.250Z,4.57
2023-05-08T00:56:13.793Z,4.59
2023-05-08T00:58:44.198Z,4.57
2023-05-08T01:01:13.177Z,4.55
2023-05-08T01:03:44.694Z,4.58
2023-05-08T01:06:14.186Z,4.57
2023-05-08T01:08:45.805Z,4.54
2023-05-08T01:11:19.295Z,4.52
2023-05-08T01:13:55.561Z,4.61
2023-05-08T01:16:33.650Z,4.68
2023-05-08T01:19:15.977Z,4.69
2023-05-08T01:21:51.592Z,4.71
2023-05-08T01:24:43.709Z,4.71
2023-05-08T01:27:43.835Z,4.72
2023-05-08T01:31:04.068Z,4.67
2023-05-08T01:33:44.096Z,4.63
2023-05-08T01:36:29.582Z,4.61
2023-05-08T01:39:08.540Z,4.61
2023-05-08T01:41:40.553Z,4.67
2023-05-08T01:44:14.900Z,4.74
2023-05-08T01:46:46.611Z,4.69
2023-05-08T01:49:25.426Z,4.52
2023-05-08T01:52:00.589Z,4.68
2023-05-08T01:54:35.040Z,4.66
2023-05-08T01:57:05.423Z,4.67
2023-05-08T01:59:36.626Z,4.61
2023-05-08T02:02:06.865Z,4.57
2023-05-08T02:04:37.265Z,4.51
2023-05-08T02:07:09.997Z,4.43
2023-05-08T02:09:42.149Z,4.48
2023-05-08T02:12:13.216Z,4.41
2023-05-08T02:14:43.616Z,4.32
2023-05-08T02:17:15.438Z,4.37
2023-05-08T02:19:47.995Z,4.30
2023-05-08T02:22:17.978Z,4.27
2023-05-08T02:24:47.657Z,4.31
2023-05-08T02:27:17.376Z,4.28
2023-05-08T02:29:46.455Z,4.27
2023-05-08T02:32:17.813Z,4.24
2023-05-08T02:35:01.942Z,4.13
2023-05-08T02:37:34.243Z,4.28
2023-05-08T02:40:05.322Z,4.28
2023-05-08T02:42:34.663Z,4.31
2023-05-08T02:45:04.168Z,4.38
2023-05-08T02:47:40.736Z,4.37
2023-05-08T02:50:17.729Z,4.29
2023-05-08T02:52:50.659Z,4.17
2023-05-08T02:55:34.290Z,4.24
2023-05-08T02:58:13.072Z,4.18
2023-05-08T03:00:48.587Z,4.10
2023-05-08T03:03:24.347Z,4.03
2023-05-08T03:05:58.819Z,4.06
2023-05-08T03:08:34.206Z,4.04
2023-05-08T03:11:06.817Z,4.04
2023-05-08T03:13:42.504Z,4.02
2023-05-08T03:16:16.282Z,3.95
2023-05-08T03:19:00.950Z,3.94
2023-05-08T03:21:31.905Z,3.89
2023-05-08T03:24:05.657Z,3.94
2023-05-08T03:26:36.517Z,3.97
2023-05-08T03:29:07.325Z,4.04
2023-05-08T03:31:37.653Z,4.07
2023-05-08T03:34:07.984Z,4.11
2023-05-08T03:36:38.270Z,4.13
2023-05-08T03:39:07.758Z,4.07
2023-05-08T03:41:36.882Z,4.09
2023-05-08T03:44:06.364Z,4.12
2023-05-08T03:46:36.891Z,4.14
2023-05-08T03:49:07.363Z,4.19
2023-05-08T03:51:39.862Z,4.16
2023-05-08T03:54:08.662Z,4.22
2023-05-08T03:56:37.783Z,4.22
2023-05-08T03:59:16.916Z,4.26
2023-05-08T04:01:51.615Z,4.31
2023-05-08T04:04:25.379Z,4.35
2023-05-08T04:07:05.158Z,4.42
2023-05-08T04:09:52.664Z,4.51
2023-05-08T04:12:37.757Z,4.57
2023-05-08T04:15:14.293Z,4.59
2023-05-08T04:17:49.047Z,4.68
2023-05-08T04:20:23.266Z,4.71
2023-05-08T04:22:55.959Z,4.75
2023-05-08T04:25:26.355Z,4.72
2023-05-08T04:27:57.601Z,4.83
2023-05-08T04:30:27.292Z,4.90
2023-05-08T04:32:56.991Z,4.97
2023-05-08T04:35:26.268Z,5.05
2023-05-08T04:37:56.641Z,5.14
2023-05-08T04:40:25.573Z,5.18
2023-05-08T04:42:54.502Z,5.21
2023-05-08T04:45:24.759Z,5.26
2023-05-08T04:47:53.686Z,5.35
2023-05-08T04:50:23.226Z,5.42
2023-05-08T04:52:51.980Z,5.50
2023-05-08T04:55:22.641Z,5.58
2023-05-08T04:57:51.460Z,5.70
2023-05-08T05:00:21.134Z,5.83
2023-05-08T05:02:50.776Z,5.94
2023-05-08T05:05:19.715Z,6.14
2023-05-08T05:07:48.541Z,6.24
2023-05-08T05:10:18.063Z,6.35
2023-05-08T05:12:49.048Z,6.50
2023-05-08T05:15:18.530Z,6.65
2023-05-08T05:17:47.288Z,6.79
2023-05-08T05:20:16.441Z,6.86
2023-05-08T05:22:45.802Z,6.97
2023-05-08T05:25:15.309Z,7.16
2023-05-08T05:27:45.215Z,7.22
2023-05-08T05:30:15.968Z,7.27
2023-05-08T05:32:44.994Z,7.38
2023-05-08T05:35:14.169Z,7.46
2023-05-08T05:37:43.561Z,7.46
2023-05-08T05:40:13.492Z,7.49
2023-05-08T05:42:44.377Z,7.49
2023-05-08T05:45:15.028Z,7.52
2023-05-08T05:47:50.087Z,7.50
2023-05-08T05:50:22.553Z,7.56
2023-05-08T05:52:52.144Z,7.58
2023-05-08T05:55:22.354Z,7.68
2023-05-08T05:57:51.517Z,7.71
2023-05-08T06:00:22.747Z,7.75
2023-05-08T06:02:56.002Z,7.76
2023-05-08T06:05:25.101Z,7.77
2023-05-08T06:07:53.857Z,7.77
2023-05-08T06:10:22.695Z,7.86
2023-05-08T06:12:51.828Z,7.92
2023-05-08T06:15:22.417Z,8.00
2023-05-08T06:17:51.510Z,8.05
2023-05-08T06:20:21.531Z,8.11
2023-05-08T06:22:50.340Z,8.18
2023-05-08T06:25:19.896Z,8.26
2023-05-08T06:27:48.648Z,8.29
2023-05-08T06:30:17.518Z,8.39
2023-05-08T06:32:47.653Z,8.44
2023-05-08T06:35:18.533Z,8.53
2023-05-08T06:37:47.412Z,8.63
2023-05-08T06:40:16.379Z,8.75
2023-05-08T06:42:45.110Z,8.80
2023-05-08T06:45:16.254Z,8.92
2023-05-08T06:47:46.742Z,8.99
2023-05-08T06:50:15.489Z,9.09
2023-05-08T06:52:44.233Z,9.28
2023-05-08T06:55:13.052Z,9.37
2023-05-08T06:57:41.974Z,9.46
2023-05-08T07:00:12.015Z,9.55
2023-05-08T07:02:41.077Z,9.72
2023-05-08T07:05:12.118Z,9.76
2023-05-08T07:07:42.724Z,9.89
2023-05-08T07:10:12.246Z,10.00
2023-05-08T07:12:40.991Z,10.07
2023-05-08T07:15:24.557Z,10.13
2023-05-08T07:17:54.029Z,10.16
2023-05-08T07:20:25.729Z,10.28
2023-05-08T07:22:54.531Z,10.37
2023-05-08T07:25:23.414Z,10.42
2023-05-08T07:27:52.186Z,10.46
2023-05-08T07:30:27.707Z,10.54
2023-05-08T07:32:57.825Z,10.67
2023-05-08T07:35:30.649Z,10.71
2023-05-08T07:37:59.472Z,10.72
2023-05-08T07:40:28.274Z,10.76
2023-05-08T07:42:57.083Z,10.80
2023-05-08T07:45:25.913Z,10.82
2023-05-08T07:47:55.930Z,10.86
2023-05-08T07:50:25.221Z,10.96
2023-05-08T07:52:55.341Z,11.05
2023-05-08T07:55:24.119Z,11.10
2023-05-08T07:57:52.887Z,11.15
2023-05-08T08:00:21.926Z,11.25
2023-05-08T08:02:50.918Z,11.26
2023-05-08T08:05:19.823Z,11.25
2023-05-08T08:07:48.650Z,11.23
2023-05-08T08:10:18.812Z,11.25
2023-05-08T08:12:47.522Z,11.38
2023-05-08T08:15:16.230Z,11.42
2023-05-08T08:17:44.964Z,11.50
2023-05-08T08:20:14.426Z,11.55
2023-05-08T08:22:43.164Z,11.62
2023-05-08T08:25:12.464Z,11.69
2023-05-08T08:27:42.686Z,11.77
2023-05-08T08:30:17.510Z,11.92
2023-05-08T08:32:47.506Z,11.97
2023-05-08T08:35:16.807Z,11.99
2023-05-08T08:37:46.040Z,12.11
2023-05-08T08:40:14.912Z,12.11
2023-05-08T08:42:45.053Z,12.14
2023-05-08T08:45:14.028Z,12.21
2023-05-08T08:47:46.651Z,12.23
2023-05-08T08:50:16.395Z,12.27
2023-05-08T08:52:56.873Z,12.30
2023-05-08T08:55:28.620Z,12.41
2023-05-08T08:58:08.572Z,12.47
2023-05-08T09:00:38.719Z,12.51
2023-05-08T09:03:07.940Z,12.57
2023-05-08T09:05:37.604Z,12.67
2023-05-08T09:08:07.247Z,12.76
2023-05-08T09:10:37.466Z,12.83
2023-05-08T09:13:07.777Z,12.84
2023-05-08T09:15:36.736Z,12.91
2023-05-08T09:18:07.854Z,12.97
2023-05-08T09:20:37.004Z,13.00
2023-05-08T09:23:05.820Z,13.10
2023-05-08T09:25:44.291Z,13.11
2023-05-08T09:28:21.824Z,13.13
2023-05-08T09:30:52.223Z,13.23
2023-05-08T09:33:21.514Z,13.25
2023-05-08T09:35:50.785Z,13.22
2023-05-08T09:38:40.065Z,13.30
2023-05-08T09:41:10.139Z,13.37
2023-05-08T09:43:40.548Z,13.50
2023-05-08T09:46:30.105Z,13.57
2023-05-08T09:49:00.587Z,13.61
2023-05-08T09:51:30.757Z,13.63
2023-05-08T09:54:04.078Z,13.64
2023-05-08T09:56:34.966Z,13.70
2023-05-08T09:59:06.838Z,13.73
2023-05-08T10:01:39.703Z,13.70
2023-05-08T10:04:08.566Z,13.83
2023-05-08T10:06:37.386Z,13.78
2023-05-08T10:09:11.281Z,13.79
2023-05-08T10:11:41.063Z,13.48
2023-05-08T10:14:12.109Z,13.92
2023-05-08T10:16:44.771Z,14.00
2023-05-08T10:19:16.723Z,14.08
2023-05-08T10:21:49.366Z,14.12
2023-05-08T10:24:19.958Z,14.15
2023-05-08T10:27:06.834Z,14.20
2023-05-08T10:29:48.451Z,14.28
2023-05-08T10:32:21.223Z,14.36
2023-05-08T10:34:56.429Z,14.43
2023-05-08T10:37:25.503Z,14.50
2023-05-08T10:39:56.564Z,14.51
2023-05-08T10:42:26.901Z,14.53
2023-05-08T10:44:57.411Z,14.57
2023-05-08T10:47:34.658Z,14.55
2023-05-08T10:50:11.134Z,14.57
2023-05-08T10:52:48.730Z,14.67
2023-05-08T10:55:24.151Z,14.71
2023-05-08T10:58:07.474Z,14.69
2023-05-08T11:01:17.904Z,14.68
2023-05-08T11:03:50.666Z,14.70
2023-05-08T11:06:40.553Z,14.86
2023-05-08T11:09:09.580Z,14.93
2023-05-08T11:11:40.360Z,14.90
2023-05-08T11:14:16.014Z,14.90
2023-05-08T11:17:08.871Z,14.99
2023-05-08T11:19:38.973Z,15.05
2023-05-08T11:22:22.036Z,15.16
2023-05-08T11:24:54.097Z,15.15
2023-05-08T11:27:36.881Z,15.18
2023-05-08T11:30:23.672Z,15.16
2023-05-08T11:33:15.421Z,15.21
2023-05-08T11:35:52.979Z,15.24
2023-05-08T11:38:26.106Z,15.28
2023-05-08T11:41:00.363Z,15.40
2023-05-08T11:44:00.894Z,15.51
2023-05-08T11:46:41.405Z,15.55
2023-05-08T11:49:16.748Z,15.58
2023-05-08T11:51:47.586Z,15.61
2023-05-08T11:54:17.986Z,15.65
2023-05-08T11:56:48.705Z,15.66
2023-05-08T11:59:18.013Z,15.73
2023-05-08T12:04:23.885Z,15.89
2023-05-08T12:06:59.437Z,15.99
2023-05-08T12:09:28.858Z,15.97
2023-05-08T12:12:00.691Z,15.93
2023-05-08T12:14:29.494Z,15.87
2023-05-08T12:16:58.378Z,15.89
2023-05-08T12:19:28.548Z,15.91
2023-05-08T12:22:01.270Z,16.02
2023-05-08T12:24:29.995Z,16.01
2023-05-08T12:26:58.817Z,16.08
2023-05-08T12:29:27.510Z,16.10
2023-05-08T12:31:56.691Z,16.13
2023-05-08T12:34:27.442Z,16.25
2023-05-08T12:37:04.697Z,16.23
2023-05-08T12:39:38.035Z,16.22
2023-05-08T12:42:06.861Z,16.20
2023-05-08T12:44:35.593Z,16.16
2023-05-08T12:47:06.014Z,16.13
2023-05-08T12:49:36.142Z,16.14
2023-05-08T12:52:06.646Z,16.24
2023-05-08T12:54:39.877Z,16.33
2023-05-08T12:57:12.605Z,16.29
2023-05-08T12:59:42.003Z,16.25
2023-05-08T13:02:19.159Z,16.27
2023-05-08T13:04:49.383Z,16.28
2023-05-08T13:07:18.205Z,16.35
2023-05-08T13:10:01.205Z,16.40
2023-05-08T13:12:30.075Z,16.50
2023-05-08T13:14:58.870Z,16.49
2023-05-08T13:17:27.706Z,16.48
2023-05-08T13:19:57.786Z,16.50
2023-05-08T13:22:26.819Z,16.53
2023-05-08T13:24:55.701Z,16.48
2023-05-08T13:27:24.485Z,16.51
2023-05-08T13:29:53.196Z,16.54
2023-05-08T13:32:22.064Z,16.45
2023-05-08T13:34:52.343Z,16.47
2023-05-08T13:37:25.715Z,16.48
2023-05-08T13:39:54.525Z,16.37
2023-05-08T13:42:23.278Z,16.36
2023-05-08T13:44:51.988Z,16.39
2023-05-08T13:47:20.750Z,16.40
2023-05-08T13:49:50.316Z,16.40
2023-05-08T13:52:19.257Z,16.41
2023-05-08T13:54:49.409Z,16.58
2023-05-08T13:57:18.208Z,16.60
2023-05-08T13:59:46.942Z,16.56
2023-05-08T14:02:15.778Z,16.61
2023-05-08T14:04:44.693Z,16.65
2023-05-08T14:07:13.393Z,16.72
2023-05-08T14:09:42.060Z,16.75
2023-05-08T14:12:12.172Z,16.77
2023-05-08T14:14:40.922Z,16.77
2023-05-08T14:17:10.605Z,16.79
2023-05-08T14:19:39.369Z,16.76
2023-05-08T14:22:08.088Z,16.79
2023-05-08T14:24:36.946Z,16.76
2023-05-08T14:27:06.224Z,16.78
2023-05-08T14:29:36.491Z,16.86
2023-05-08T14:32:05.721Z,16.88
2023-05-08T14:34:34.640Z,16.84
2023-05-08T14:37:03.413Z,16.87
2023-05-08T14:39:32.212Z,16.93
2023-05-08T14:44:36.353Z,16.97
2023-05-08T14:47:05.150Z,16.95
2023-05-08T14:49:38.192Z,16.90
2023-05-08T14:52:08.084Z,16.93
2023-05-08T14:54:36.993Z,16.97
2023-05-08T14:57:07.634Z,16.93
2023-05-08T14:59:38.695Z,17.03
2023-05-08T15:02:12.564Z,17.05
2023-05-08T15:04:42.513Z,17.02
2023-05-08T15:07:11.323Z,17.00
2023-05-08T15:09:40.072Z,17.04
2023-05-08T15:12:09.124Z,17.04
2023-05-08T15:14:39.201Z,17.01
2023-05-08T15:17:07.967Z,17.03
2023-05-08T15:19:36.687Z,17.01
2023-05-08T15:22:05.808Z,16.97
2023-05-08T15:24:34.591Z,16.99
2023-05-08T15:27:03.307Z,17.01
2023-05-08T15:29:32.216Z,17.11
2023-05-08T15:32:02.347Z,17.12
2023-05-08T15:34:32.896Z,17.11
2023-05-08T15:37:02.174Z,17.09
2023-05-08T15:39:31.467Z,17.09
2023-05-08T15:42:00.263Z,17.05
2023-05-08T15:44:41.683Z,17.01
2023-05-08T15:47:19.547Z,16.93
2023-05-08T15:49:48.342Z,16.93
2023-05-08T15:52:18.852Z,17.54
2023-05-08T15:54:47.698Z,17.70
2023-05-08T15:57:16.627Z,17.49
2023-05-08T15:59:45.698Z,17.34
2023-05-08T16:02:14.534Z,17.24
2023-05-08T16:04:44.711Z,17.16
2023-05-08T16:07:13.439Z,17.11
2023-05-08T16:09:42.534Z,17.31
2023-05-08T16:12:11.223Z,17.45
2023-05-08T16:14:39.958Z,17.49
2023-05-08T16:17:09.514Z,17.39
2023-05-08T16:19:42.864Z,17.29
2023-05-08T16:22:11.740Z,17.32
2023-05-08T16:24:40.741Z,17.28
2023-05-08T16:27:09.470Z,17.28
2023-05-08T16:29:38.247Z,17.24
2023-05-08T16:32:07.289Z,17.23
2023-05-08T16:34:36.702Z,17.26
2023-05-08T16:37:07.184Z,17.32
2023-05-08T16:39:36.758Z,17.39
2023-05-08T16:42:06.365Z,17.44
2023-05-08T16:44:36.452Z,17.38
2023-05-08T16:47:05.595Z,17.29
2023-05-08T16:49:34.532Z,17.30
2023-05-08T16:52:03.379Z,17.22
2023-05-08T16:54:33.802Z,17.19
2023-05-08T16:57:02.846Z,17.22
2023-05-08T16:59:32.293Z,17.19
2023-05-08T17:02:01.195Z,17.13
2023-05-08T17:04:30.847Z,17.07
2023-05-08T17:07:00.366Z,16.94
2023-05-08T17:09:29.741Z,16.91
2023-05-08T17:12:01.852Z,16.86
2023-05-08T17:14:30.709Z,16.78
2023-05-08T17:16:59.489Z,16.60
2023-05-08T17:19:28.530Z,16.48
2023-05-08T17:21:59.585Z,16.52
2023-05-08T17:24:28.676Z,16.71
2023-05-08T17:26:57.503Z,16.78
2023-05-08T17:29:27.607Z,16.79
2023-05-08T17:31:56.401Z,16.62
2023-05-08T17:34:25.184Z,16.70
2023-05-08T17:36:55.095Z,16.75
2023-05-08T17:39:24.203Z,16.74
2023-05-08T17:41:54.134Z,16.64
2023-05-08T17:44:22.864Z,16.64
2023-05-08T17:46:53.037Z,16.62
2023-05-08T17:49:22.062Z,16.59
2023-05-08T17:51:50.970Z,16.50
2023-05-08T17:54:19.730Z,16.48
2023-05-08T17:56:48.619Z,16.35
2023-05-08T17:59:17.477Z,16.25
2023-05-08T18:01:46.195Z,16.07
2023-05-08T18:04:16.429Z,15.95
2023-05-08T18:06:47.734Z,15.66
2023-05-08T18:09:16.512Z,15.45
2023-05-08T18:11:45.314Z,15.20
2023-05-08T18:14:14.058Z,14.99
2023-05-08T18:16:42.768Z,14.77
2023-05-08T18:19:11.885Z,14.57
2023-05-08T18:21:42.064Z,14.41
2023-05-08T18:24:10.832Z,14.21
2023-05-08T18:26:39.681Z,14.34
2023-05-08T18:29:08.510Z,14.32
2023-05-08T18:31:37.262Z,14.73
2023-05-08T18:34:06.294Z,14.77
2023-05-08T18:36:35.492Z,14.68
2023-05-08T18:39:05.738Z,14.26
2023-05-08T18:41:34.612Z,13.88
2023-05-08T18:44:05.167Z,13.57
2023-05-08T18:46:34.174Z,13.30
2023-05-08T18:49:03.008Z,13.06
2023-05-08T18:51:31.919Z,12.85
2023-05-08T18:54:00.803Z,12.70
2023-05-08T18:56:31.092Z,12.62
2023-05-08T18:59:00.915Z,12.43
2023-05-08T19:01:29.838Z,12.23
2023-05-08T19:03:58.615Z,12.02
2023-05-08T19:06:27.429Z,11.94
2023-05-08T19:08:56.199Z,11.87
2023-05-08T19:11:26.089Z,11.84
2023-05-08T19:13:56.429Z,11.79
2023-05-08T19:16:25.365Z,11.70
2023-05-08T19:18:54.294Z,11.56
2023-05-08T19:21:23.356Z,11.43
2023-05-08T19:23:54.141Z,11.29
2023-05-08T19:26:22.910Z,11.25
2023-05-08T19:28:51.765Z,11.16
2023-05-08T19:31:21.991Z,11.00
2023-05-08T19:33:51.125Z,10.94
2023-05-08T19:36:19.858Z,10.98
2023-05-08T19:38:48.545Z,10.95
2023-05-08T19:41:17.880Z,10.87
2023-05-08T19:43:46.727Z,10.77
2023-05-08T19:46:15.838Z,10.75
2023-05-08T19:48:46.048Z,10.70
2023-05-08T19:51:16.324Z,10.65
2023-05-08T19:53:45.150Z,10.57
2023-05-08T19:56:13.991Z,10.54
2023-05-08T19:58:42.749Z,10.46
2023-05-08T20:01:11.613Z,10.37
2023-05-08T20:03:40.468Z,10.31
2023-05-08T20:06:10.784Z,10.29
2023-05-08T20:08:39.532Z,10.35
2023-05-08T20:11:11.673Z,10.28
2023-05-08T20:13:40.932Z,10.16
2023-05-08T20:16:09.995Z,10.07
2023-05-08T20:18:38.780Z,10.00
2023-05-08T20:21:11.690Z,9.96
2023-05-08T20:23:41.236Z,9.99
2023-05-08T20:26:10.025Z,10.01
2023-05-08T20:28:38.900Z,9.94
2023-05-08T20:31:07.703Z,9.86
2023-05-08T20:33:36.660Z,9.81
2023-05-08T20:36:05.746Z,9.82
2023-05-08T20:38:36.776Z,9.76
2023-05-08T20:41:05.965Z,9.75
2023-05-08T20:43:34.780Z,9.67
2023-05-08T20:46:03.561Z,9.65
2023-05-08T20:48:32.773Z,9.62
2023-05-08T20:51:01.482Z,9.56
2023-05-08T20:53:30.502Z,9.57
2023-05-08T20:56:04.796Z,9.49
2023-05-08T20:58:33.944Z,9.51
2023-05-08T21:01:02.870Z,9.49
2023-05-08T21:03:32.154Z,9.44
2023-05-08T21:06:01.577Z,9.48
2023-05-08T21:08:30.408Z,9.43
2023-05-08T21:10:59.172Z,9.42
2023-05-08T21:13:29.277Z,9.39
2023-05-08T21:15:58.320Z,9.32
2023-05-08T21:18:27.346Z,9.26
2023-05-08T21:20:56.010Z,9.23
2023-05-08T21:23:24.827Z,9.19
2023-05-08T21:25:53.525Z,9.22
2023-05-08T21:28:22.289Z,9.25
2023-05-08T21:30:52.444Z,9.21
2023-05-08T21:33:21.166Z,9.14
2023-05-08T21:35:49.887Z,9.26
2023-05-08T21:38:18.614Z,9.28
2023-05-08T21:40:47.402Z,9.18
2023-05-08T21:43:16.140Z,9.06
2023-05-08T21:45:44.827Z,8.98
2023-05-08T21:48:16.285Z,8.91
2023-05-08T21:50:45.040Z,8.89
2023-05-08T21:53:13.996Z,8.86
2023-05-08T21:55:42.720Z,8.80
2023-05-08T21:58:11.425Z,8.69
2023-05-08T22:00:40.476Z,8.62
2023-05-08T22:03:09.359Z,8.59
2023-05-08T22:05:39.600Z,8.54
2023-05-08T22:08:08.574Z,8.51
2023-05-08T22:10:37.593Z,8.50
2023-05-08T22:13:07.515Z,8.53
2023-05-08T22:15:36.548Z,8.48
2023-05-08T22:18:05.806Z,8.43
2023-05-08T22:20:35.167Z,8.35
2023-05-08T22:23:05.853Z,8.38
2023-05-08T22:25:34.580Z,8.41
2023-05-08T22:28:03.314Z,8.41
2023-05-08T22:30:32.227Z,8.41
2023-05-08T22:33:01.148Z,8.40
2023-05-08T22:35:29.992Z,8.44
2023-05-08T22:37:58.729Z,8.41
2023-05-08T22:40:29.685Z,8.40
2023-05-08T22:42:58.892Z,8.39
2023-05-08T22:45:28.119Z,8.38
2023-05-08T22:47:57.353Z,8.42
2023-05-08T22:50:26.099Z,8.40
2023-05-08T22:52:54.863Z,8.35
2023-05-08T22:55:23.665Z,8.31
2023-05-08T22:57:53.771Z,8.25
2023-05-08T23:00:22.897Z,8.21
2023-05-08T23:02:51.687Z,8.22
2023-05-08T23:05:20.512Z,8.23
2023-05-08T23:07:49.331Z,8.31
2023-05-08T23:10:18.163Z,8.33
2023-05-08T23:12:47.061Z,8.28
2023-05-08T23:15:17.287Z,8.30
2023-05-08T23:17:46.076Z,8.28
2023-05-08T23:20:15.675Z,8.28
2023-05-08T23:22:44.402Z,8.36
2023-05-08T23:25:13.452Z,8.35
2023-05-08T23:27:42.466Z,8.36
2023-05-08T23:30:13.305Z,8.43
2023-05-08T23:32:43.777Z,8.48
2023-05-08T23:35:13.226Z,8.48
2023-05-08T23:37:42.122Z,8.45
2023-05-08T23:40:11.725Z,8.41
2023-05-08T23:42:40.774Z,8.36
2023-05-08T23:45:11.006Z,8.39
2023-05-08T23:47:39.801Z,8.35
2023-05-08T23:50:10.880Z,8.28
2023-05-08T23:52:39.648Z,8.25
2023-05-08T23:55:09.699Z,8.21
2023-05-08T23:57:38.444Z,8.26
